Latest Coastal Weather Observations for Coles Point

IDS60701

Issued at 12:45 pm CST Friday 29 August 2014 (issued every 10 minutes, with the page automatically refreshed every 10 minutes)

About coastal observations | Map of coastal stations | Coastal observations for SA | Marine services | Other Formats
Station Details ID: 018191 Name: COLES POINT Lat: -34.37 Lon: 135.37 Height: 28.0 m
Data from the previous 72 hours. | See also: Recent months at Coles Point
Date/Time
CST
Temp

°C
Wind Pressure Rain
since 9am
mm
Weather Cloud Vis
km
Sea
Height
m
Swell
Dir
 
Speed
knots
Gust
knots
hPa Trend Height
m
Period
s
Dir
29/12:30pm 22.9 N 8 16 1025.2 - 0.0 - - - - - - -
29/12:00pm 22.8 N 13 18 1025.7 - 0.0 - - - - - - -
29/11:30am 22.1 N 13 17 1026.3 - 0.0 - - - - - - -
29/11:00am 19.9 NE 9 12 1026.6 - 0.0 - - - - - - -
29/10:30am 18.5 NE 9 12 1026.9 - 0.0 - - - - - - -
29/10:00am 16.6 NE 11 13 1027.0 - 0.0 - - - - - - -
29/09:30am 14.6 NE 12 15 1027.0 - 0.0 - - - - - - -
29/09:00am 13.4 NE 14 16 1027.1 - 0.0 - - - - - - -
29/08:30am 12.3 NE 13 15 1027.0 - 0.0 - - - - - - -
29/08:00am 11.3 NE 13 15 1026.7 - 0.0 - - - - - - -
29/07:30am 10.5 NE 13 14 1026.5 - 0.0 - - - - - - -
29/07:00am 10.2 NE 13 14 1026.3 - 0.0 - - - - - - -
29/06:30am 10.6 NE 13 14 1025.9 - 0.0 - - - - - - -
29/06:00am 10.2 NE 12 13 1025.7 - 0.0 - - - - - - -
29/05:30am 10.4 NE 12 13 1025.6 - 0.0 - - - - - - -
29/05:00am 11.5 NE 12 13 1025.5 - 0.0 - - - - - - -
29/04:30am 11.6 NNE 12 13 1025.5 - 0.0 - - - - - - -
29/04:00am 11.1 NNE 12 13 1025.6 - 0.0 - - - - - - -
29/03:30am 10.6 NNE 12 13 1025.6 - 0.0 - - - - - - -
29/03:00am 11.6 NE 13 14 1025.8 - 0.0 - - - - - - -
29/02:30am 12.1 NNE 13 14 1026.0 - 0.0 - - - - - - -
29/02:00am 13.1 NNE 12 14 1026.4 - 0.0 - - - - - - -
29/01:30am 13.7 NE 12 14 1026.6 - 0.0 - - - - - - -
29/01:00am 14.3 NNE 12 14 1026.5 - 0.0 - - - - - - -
29/12:30am 14.3 NNE 12 14 1026.5 - 0.0 - - - - - - -
29/12:00am 13.4 NNE 10 11 1026.4 - 0.0 - - - - - - -
 
Date/Time
CST
Temp

°C
Wind Pressure Rain
since 9am
mm
Weather Cloud Vis
km
Sea
Height
m
Swell
Dir
 
Speed
knots
Gust
knots
hPa Trend Height
m
Period
s
Dir
28/11:30pm 13.5 NNE 10 11 1026.4 - 0.0 - - - - - - -
28/11:00pm 13.6 NNE 9 11 1026.4 - 0.0 - - - - - - -
28/10:30pm 14.1 NNE 9 11 1026.5 - 0.0 - - - - - - -
28/10:00pm 14.3 NNE 10 11 1026.5 - 0.0 - - - - - - -
28/09:30pm 14.3 NNE 9 10 1026.5 - 0.0 - - - - - - -
28/09:00pm 11.9 NE 7 8 1026.6 - 0.0 - - - - - - -
28/08:30pm 11.7 ENE 6 6 1026.6 - 0.0 - - - - - - -
28/08:00pm 12.9 E 5 6 1026.3 - 0.0 - - - - - - -
28/07:30pm 13.2 E 3 5 1026.3 - 0.0 - - - - - - -
28/07:00pm 13.6 ESE 4 5 1025.7 - 0.0 - - - - - - -
28/06:30pm 14.1 E 4 6 1025.6 - 0.0 - - - - - - -
28/06:00pm 16.9 SE 3 5 1025.2 - 0.0 - - - - - - -
28/05:30pm 18.7 SW 1 2 1025.4 - 0.0 - - - - - - -
28/05:00pm 19.2 CALM 0 0 1025.3 - 0.0 - - - - - - -
28/04:30pm 20.1 SW 1 1 1025.4 - 0.0 - - - - - - -
28/04:00pm 20.5 SW 2 3 1025.4 - 0.0 - - - - - - -
28/03:30pm 21.4 WNW 4 6 1025.6 - 0.0 - - - - - - -
28/03:00pm 20.2 W 3 5 1025.7 - 0.0 - - - - - - -
28/02:30pm 21.2 W 4 6 1025.8 - 0.0 - - - - - - -
28/02:00pm 20.2 W 4 6 1026.0 - 0.0 - - - - - - -
28/01:30pm 20.4 W 5 7 1026.1 - 0.0 - - - - - - -
28/01:00pm 21.4 NW 6 8 1026.5 - 0.0 - - - - - - -
28/12:30pm 21.5 NNW 6 8 1026.7 - 0.0 - - - - - - -
28/12:00pm 21.8 ENE 2 4 1027.0 - 0.0 - - - - - - -
28/11:30am 19.1 SW 3 5 1027.4 - 0.0 - - - - - - -
28/11:00am 19.8 ENE 5 7 1027.6 - 0.0 - - - - - - -
28/10:30am 18.3 NE 9 12 1027.3 - 0.0 - - - - - - -
28/10:00am 15.5 NE 11 13 1027.6 - 0.0 - - - - - - -
28/09:30am 13.7 NE 13 14 1027.6 - 0.0 - - - - - - -
28/09:00am 12.9 NE 12 14 1027.7 - 0.0 - - - - - - -
28/08:30am 12.0 NE 12 14 1027.5 - 0.0 - - - - - - -
28/08:00am 11.2 NE 12 13 1027.4 - 0.0 - - - - - - -
28/07:30am 10.6 NE 12 14 1027.2 - 0.0 - - - - - - -
28/07:00am 10.6 NE 13 14 1026.9 - 0.0 - - - - - - -
28/06:30am 11.1 NE 13 15 1026.6 - 0.0 - - - - - - -
28/06:00am 11.1 NE 12 14 1026.4 - 0.0 - - - - - - -
28/05:30am 11.3 NE 11 13 1026.2 - 0.0 - - - - - - -
28/05:00am 11.6 NE 12 14 1026.1 - 0.0 - - - - - - -
28/04:30am 11.5 NNE 11 13 1025.9 - 0.0 - - - - - - -
28/04:00am 11.6 NNE 11 13 1025.9 - 0.0 - - - - - - -
28/03:30am 11.4 NE 11 13 1026.0 - 0.0 - - - - - - -
28/03:00am 11.5 NE 11 12 1026.2 - 0.0 - - - - - - -
28/02:30am 11.6 NNE 11 13 1026.4 - 0.0 - - - - - - -
28/02:00am 11.9 NNE 12 13 1026.7 - 0.0 - - - - - - -
28/01:30am 11.9 NE 11 13 1026.8 - 0.0 - - - - - - -
28/01:00am 11.2 NE 10 11 1027.0 - 0.0 - - - - - - -
28/12:30am 11.3 NE 9 10 1026.9 - 0.0 - - - - - - -
28/12:00am 10.8 NE 9 10 1027.0 - 0.0 - - - - - - -
 
Date/Time
CST
Temp

°C
Wind Pressure Rain
since 9am
mm
Weather Cloud Vis
km
Sea
Height
m
Swell
Dir
 
Speed
knots
Gust
knots
hPa Trend Height
m
Period
s
Dir
27/11:30pm 11.7 NE 10 11 1027.1 - 0.0 - - - - - - -
27/11:00pm 11.7 NE 9 10 1027.3 - 0.0 - - - - - - -
27/10:30pm 11.5 NE 9 10 1027.2 - 0.0 - - - - - - -
27/10:00pm 11.7 NNE 8 9 1027.1 - 0.0 - - - - - - -
27/09:30pm 12.2 NNE 8 9 1027.1 - 0.0 - - - - - - -
27/09:00pm 12.4 NNE 8 9 1026.8 - 0.0 - - - - - - -
27/08:30pm 12.4 NE 8 9 1026.6 - 0.0 - - - - - - -
27/08:00pm 12.5 ENE 7 8 1026.4 - 0.0 - - - - - - -
27/07:30pm 13.2 SSE 7 8 1025.9 - 0.0 - - - - - - -
27/07:00pm 13.0 SE 7 8 1025.6 - 0.0 - - - - - - -
27/06:30pm 13.9 SSE 8 10 1025.4 - 0.0 - - - - - - -
27/06:00pm 15.0 SSE 6 8 1025.2 - 0.0 - - - - - - -
27/05:30pm 16.5 S 4 6 1025.2 - 0.0 - - - - - - -
27/05:00pm 17.7 S 6 8 1024.8 - 0.0 - - - - - - -
27/04:30pm 18.9 S 6 7 1024.5 - 0.0 - - - - - - -
27/04:00pm 19.3 SW 5 6 1024.4 - 0.0 - - - - - - -
27/03:30pm 18.8 NW 4 7 1024.4 - 0.0 - - - - - - -
27/03:00pm 21.5 NE 5 7 1024.4 - 0.0 - - - - - - -
27/02:30pm 19.8 NNE 2 4 1024.6 - 0.0 - - - - - - -
27/02:00pm 21.0 NE 6 7 1024.7 - 0.0 - - - - - - -
27/01:30pm 20.6 NE 5 7 1025.0 - 0.0 - - - - - - -
27/01:00pm 20.0 NE 5 6 1025.3 - 0.0 - - - - - - -
27/12:30pm 19.4 NE 5 7 1025.8 - 0.0 - - - - - - -
27/12:00pm 18.8 NNE 5 7 1026.1 - 0.0 - - - - - - -
27/11:30am 17.6 NNE 5 7 1026.4 - 0.0 - - - - - - -
27/11:00am 16.8 NNE 6 8 1026.5 - 0.0 - - - - - - -
27/10:30am 15.4 NE 7 9 1026.6 - 0.0 - - - - - - -
27/10:00am 15.2 NNE 3 5 1026.8 - 0.0 - - - - - - -
27/09:30am 13.8 NE 6 7 1026.6 - 0.0 - - - - - - -
27/09:00am 13.1 NE 4 6 1026.5 - 0.0 - - - - - - -
27/08:30am 11.1 ENE 4 5 1026.3 - 0.0 - - - - - - -
27/08:00am 8.8 ENE 5 7 1026.0 - 0.0 - - - - - - -
27/07:30am 7.1 NE 6 7 1025.6 - 0.0 - - - - - - -
27/07:00am 9.2 NE 6 9 1025.3 - 0.0 - - - - - - -
27/06:30am 8.9 NNE 6 9 1025.0 - 0.0 - - - - - - -
27/06:00am 8.8 NE 9 10 1024.5 - 0.0 - - - - - - -
27/05:30am 9.8 NNE 9 11 1024.2 - 0.0 - - - - - - -
27/05:00am 9.6 NNE 10 11 1024.1 - 0.0 - - - - - - -
27/04:30am 8.9 NNE 10 11 1024.2 - 0.0 - - - - - - -
27/04:00am 8.8 NNE 9 10 1024.1 - 0.0 - - - - - - -
27/03:30am 8.2 NNE 8 10 1024.0 - 0.0 - - - - - - -
27/03:00am 9.1 NE 10 11 1023.9 - 0.0 - - - - - - -
27/02:30am 9.3 NNE 9 11 1024.1 - 0.0 - - - - - - -
27/02:00am 9.2 NE 9 10 1024.2 - 0.0 - - - - - - -
27/01:30am 8.7 NE 9 11 1024.2 - 0.0 - - - - - - -
27/01:00am 8.3 NE 9 10 1024.3 - 0.0 - - - - - - -
27/12:30am 7.1 ENE 6 6 1024.6 - 0.0 - - - - - - -
27/12:00am 7.8 ENE 6 7 1024.6 - 0.0 - - - - - - -
 
Date/Time
CST
Temp

°C
Wind Pressure Rain
since 9am
mm
Weather Cloud Vis
km
Sea
Height
m
Swell
Dir
 
Speed
knots
Gust
knots
hPa Trend Height
m
Period
s
Dir
26/11:30pm 8.3 NE 3 7 1024.9 - 0.0 - - - - - - -
26/11:00pm 10.0 NNE 10 11 1024.4 - 0.0 - - - - - - -
26/10:30pm 10.2 NNE 9 10 1024.8 - 0.0 - - - - - - -
26/10:00pm 10.4 NNE 9 10 1024.6 - 0.0 - - - - - - -
26/09:30pm 10.7 NNE 10 11 1024.7 - 0.0 - - - - - - -
26/09:00pm 11.3 NNE 8 9 1024.7 - 0.0 - - - - - - -
26/08:30pm 11.3 NNE 8 9 1024.6 - 0.0 - - - - - - -
26/08:00pm 11.0 ENE 4 6 1024.3 - 0.0 - - - - - - -
26/07:30pm 10.7 ENE 4 6 1023.6 - 0.0 - - - - - - -
26/07:00pm 10.8 ENE 3 4 1023.5 - 0.0 - - - - - - -
26/06:30pm 11.2 E 5 6 1023.5 - 0.0 - - - - - - -
26/06:00pm 13.5 SSE 6 7 1023.7 - 0.0 - - - - - - -
26/05:30pm 15.3 SSE 6 9 1023.7 - 0.0 - - - - - - -
26/05:00pm 16.3 S 7 8 1023.6 - 0.0 - - - - - - -
26/04:30pm 17.2 SSW 6 8 1023.5 - 0.0 - - - - - - -
26/04:00pm 17.7 SSW 6 7 1023.4 - 0.0 - - - - - - -
26/03:30pm 17.8 SW 5 6 1023.5 - 0.0 - - - - - - -
26/03:00pm 17.7 SW 5 7 1023.7 - 0.0 - - - - - - -
26/02:30pm 17.2 SW 6 7 1023.9 - 0.0 - - - - - - -
26/02:00pm 16.5 SW 7 8 1024.1 - 0.0 - - - - - - -
26/01:30pm 16.6 SW 6 8 1024.3 - 0.0 - - - - - - -
26/01:00pm 16.4 SW 6 7 1024.7 - 0.0 - - - - - - -

Other Formats:

Comma delimited format used in spreadsheet applications
http://www.bom.gov.au/fwo/IDS60701/IDS60701.94658.axf

JavaScript Object Notation format (JSON) in row-major order
http://www.bom.gov.au/fwo/IDS60701/IDS60701.94658.json